Terminal Aerodrome Forecast
Issued by NWS

Home | Current Version | Previous Version | Graphics & Text | Print | Product List | Glossary On
Versions: 1 2 3 4 5 6 7 8 9 10 11 12 13 14 15 16 17 18 19 20 21 22 23
000
FTUS43 KMPX 280746 AAB
TAFAXN
TAF AMD
KAXN 280746Z 2808/2906 14013KT P6SM SCT025 BKN120
     FM280900 15014KT P6SM VCSH SCT025 BKN050
     FM280945 15015KT 5SM -TSRA SCT025 BKN050CB
      TEMPO 2810/2813 2SM TSRA OVC020CB
     FM281300 16015G23KT 5SM -SHRA BR OVC020
     FM281600 19014G21KT P6SM VCSH SCT020 OVC035
     FM282100 25016G25KT P6SM BKN040=

USA.gov is the U.S. government's official web portal to all federal, state and local government web resources and services.